Ojuelas, Texas
Current Conditions -  °F | °C
As of 5:35 PM on Saturday 20 Dec 2014 (Local Time) from KHBV Reporting Station
Haze Haze  
Wind Chill: 52°   Ceiling: 1300
Heat Index: 52°   Visibility: 4mi
Dew Point: 47°   Wind: 3mph
Humidity: 83%   Direction: 40°NE
Pressure: 30.14"   Gusts: NA
Location:  27.4459°N, 99.0184°W
Report Text: KHBV 202335Z AUTO 04003KT 4SM HZ OVC013 11/09 A3014 RMK AO2 T01120085
Loading
Personal Weather Stations






























Interactive Weather Map New forecast layout! Learn more

10-Day Weather Forecast

Advertisements
Track Severe Weather on mobile